Time;durP1;ratioP1;P1;durP2;ratioP2;P2;SDS_P1;SDS_P2;PMS_P1;PMS_P2;Temp;Humidity;BMP_temperature;BMP_pressure;BME280_temperature;BME280_humidity;BME280_pressure;Samples;Min_cycle;Max_cycle;Signal;HPM_P1;HPM_P2
2023/06/04 00:01:12;;;;;;;4.85;2.47;;;;;;;13.80;64.82;102445.06;6096395;19;20460;-77
2023/06/04 00:03:23;;;;;;;3.63;2.72;;;;;;;13.74;65.12;102454.00;6093993;19;20023;-78
2023/06/04 00:05:28;;;;;;;4.72;2.35;;;;;;;13.75;65.03;102444.34;6098193;19;20070;-78
2023/06/04 00:07:43;;;;;;;5.55;2.30;;;;;;;13.70;65.02;102446.25;6098026;19;20113;-79
2023/06/04 00:09:54;;;;;;;5.10;2.47;;;;;;;13.64;65.15;102451.66;6095326;19;20041;-78
2023/06/04 00:12:02;;;;;;;5.68;2.50;;;;;;;13.56;65.09;102450.13;6100706;19;20365;-78
2023/06/04 00:14:07;;;;;;;8.40;2.95;;;;;;;13.53;65.31;102450.22;6098661;19;20010;-78
2023/06/04 00:16:17;;;;;;;4.75;2.30;;;;;;;13.50;65.25;102446.78;6090952;19;20024;-78
2023/06/04 00:18:24;;;;;;;5.65;2.25;;;;;;;13.43;65.81;102456.66;6100886;19;20479;-77
2023/06/04 00:20:30;;;;;;;4.13;2.15;;;;;;;13.38;65.37;102454.13;6095925;19;20009;-78
2023/06/04 00:22:42;;;;;;;4.25;2.25;;;;;;;13.42;65.60;102459.31;6093016;19;20032;-77
2023/06/04 00:24:49;;;;;;;4.50;2.20;;;;;;;13.39;65.49;102450.56;6093857;19;20014;-79
2023/06/04 00:26:57;;;;;;;3.60;2.10;;;;;;;13.36;65.56;102445.38;6098527;19;20368;-80
2023/06/04 00:29:03;;;;;;;3.78;2.15;;;;;;;13.38;65.33;102450.63;6105114;19;20086;-79
2023/06/04 00:31:12;;;;;;;5.00;2.13;;;;;;;13.35;65.22;102448.94;6098375;19;20014;-80
2023/06/04 00:33:25;;;;;;;7.05;2.67;;;;;;;13.35;65.27;102451.56;6102478;19;20424;-78
2023/06/04 00:35:36;;;;;;;8.13;2.35;;;;;;;13.28;65.25;102449.13;6097285;19;20011;-79
2023/06/04 00:37:46;;;;;;;4.40;2.20;;;;;;;13.27;65.32;102457.94;6099021;19;20026;-80
2023/06/04 00:39:54;;;;;;;3.80;1.90;;;;;;;13.26;65.19;102459.72;6100759;19;20097;-78
2023/06/04 00:42:10;;;;;;;2.90;1.98;;;;;;;13.20;65.38;102464.25;6089921;19;20110;-78
2023/06/04 00:44:19;;;;;;;5.32;2.58;;;;;;;13.15;65.46;102462.59;6096993;19;20647;-81
2023/06/04 00:46:28;;;;;;;3.70;2.45;;;;;;;13.11;65.49;102463.59;6091968;19;20076;-78
2023/06/04 00:48:47;;;;;;;4.22;2.30;;;;;;;13.04;65.75;102455.88;6094095;19;20014;-80
2023/06/04 00:50:54;;;;;;;6.60;2.47;;;;;;;13.05;65.84;102453.16;6101947;19;20094;-80
2023/06/04 00:53:03;;;;;;;3.53;2.05;;;;;;;13.07;65.47;102454.00;6100930;19;20007;-79
2023/06/04 00:55:18;;;;;;;3.72;2.10;;;;;;;12.99;65.45;102450.69;6103932;19;20059;-80
2023/06/04 00:57:30;;;;;;;5.55;2.20;;;;;;;12.94;65.56;102452.56;6101281;19;20489;-78
2023/06/04 00:59:41;;;;;;;6.40;2.28;;;;;;;12.95;65.37;102456.94;6104140;19;20019;-79
2023/06/04 01:02:03;;;;;;;4.93;2.38;;;;;;;12.93;65.71;102462.28;6103906;19;20010;-78
2023/06/04 01:04:20;;;;;;;5.85;2.00;;;;;;;12.84;65.65;102459.84;6099604;19;20011;-79
2023/06/04 01:06:41;;;;;;;5.53;2.80;;;;;;;12.81;65.68;102462.56;6091110;19;20672;-78
2023/06/04 01:08:47;;;;;;;3.15;2.15;;;;;;;12.81;65.92;102461.69;6080011;19;20007;-78
2023/06/04 01:10:57;;;;;;;3.15;2.08;;;;;;;12.77;65.82;102463.56;6093362;19;20051;-80
2023/06/04 01:13:10;;;;;;;4.93;2.10;;;;;;;12.80;65.77;102462.63;6099753;19;20047;-79
2023/06/04 01:15:15;;;;;;;3.80;2.30;;;;;;;12.78;65.62;102461.78;6087751;19;20017;-80
2023/06/04 01:17:29;;;;;;;4.20;2.15;;;;;;;12.64;66.29;102462.09;6098997;19;20350;-80
2023/06/04 01:20:11;;;;;;;7.47;2.50;;;;;;;12.63;66.28;102460.34;6090682;19;20011;-79
2023/06/04 01:22:34;;;;;;;3.22;2.15;;;;;;;12.57;66.70;102463.13;6091904;19;20043;-80
2023/06/04 01:24:45;;;;;;;3.60;2.20;;;;;;;12.50;66.62;102462.41;6045107;19;20007;-78
2023/06/04 01:26:55;;;;;;;3.25;2.30;;;;;;;12.47;66.54;102467.75;6082714;19;20067;-80
2023/06/04 01:29:04;;;;;;;4.45;2.50;;;;;;;12.38;66.89;102471.47;6099105;19;20011;-80
2023/06/04 01:31:12;;;;;;;5.28;2.40;;;;;;;12.37;67.13;102469.69;6081503;19;20525;-80
2023/06/04 01:33:21;;;;;;;4.47;2.30;;;;;;;12.35;67.28;102465.38;6080309;19;20081;-79
2023/06/04 01:35:27;;;;;;;3.97;2.05;;;;;;;12.29;67.28;102467.22;6084453;19;20024;-82
2023/06/04 01:37:37;;;;;;;4.40;2.47;;;;;;;12.28;67.30;102465.50;6073380;19;20490;-79
2023/06/04 01:39:42;;;;;;;4.32;2.05;;;;;;;12.30;67.24;102463.72;6091824;19;20042;-80
2023/06/04 01:41:53;;;;;;;7.65;2.85;;;;;;;12.28;67.36;102467.28;6103996;19;20006;-79
2023/06/04 01:44:05;;;;;;;4.78;2.60;;;;;;;12.20;67.49;102463.94;6098762;19;20715;-80
2023/06/04 01:46:12;;;;;;;5.82;2.28;;;;;;;12.15;67.48;102466.66;6089442;19;20047;-79
2023/06/04 01:48:21;;;;;;;3.63;2.28;;;;;;;12.09;67.46;102451.00;6087959;19;20020;-79
2023/06/04 01:50:27;;;;;;;4.40;2.40;;;;;;;12.10;67.91;102451.88;6088591;19;20079;-79
2023/06/04 01:52:37;;;;;;;6.45;2.78;;;;;;;12.08;68.17;102455.41;6093720;19;20009;-79
2023/06/04 01:54:45;;;;;;;5.75;2.53;;;;;;;12.03;68.04;102453.75;6111827;19;20035;-78
2023/06/04 01:56:54;;;;;;;4.03;2.70;;;;;;;11.98;68.13;102451.22;6114573;19;20035;-79
2023/06/04 01:59:05;;;;;;;5.65;2.50;;;;;;;12.01;67.94;102455.56;6071070;19;20450;-79
2023/06/04 02:01:11;;;;;;;5.22;2.50;;;;;;;11.95;68.04;102453.03;6110986;19;20003;-80
2023/06/04 02:03:21;;;;;;;4.95;2.60;;;;;;;11.92;68.27;102455.75;6111217;19;20010;-79
2023/06/04 02:05:32;;;;;;;4.60;2.17;;;;;;;11.91;68.01;102454.00;6116712;19;20087;-79
2023/06/04 02:07:44;;;;;;;6.65;2.35;;;;;;;11.88;68.05;102457.56;6118195;19;20023;-79
2023/06/04 02:10:00;;;;;;;4.50;2.38;;;;;;;11.91;68.08;102454.00;6115331;19;20657;-79
2023/06/04 02:12:06;;;;;;;5.65;2.42;;;;;;;11.86;68.15;102456.72;6096157;19;20024;-78
2023/06/04 02:14:12;;;;;;;7.53;2.40;;;;;;;11.85;68.00;102453.19;6105944;19;20039;-77
2023/06/04 02:16:20;;;;;;;4.13;2.30;;;;;;;11.82;67.93;102455.91;6106359;19;20031;-78
2023/06/04 02:18:28;;;;;;;4.15;2.20;;;;;;;11.80;67.88;102455.06;6111287;19;20318;-78
2023/06/04 02:20:35;;;;;;;5.43;2.25;;;;;;;11.76;67.90;102445.47;6081911;19;20010;-77
2023/06/04 02:22:47;;;;;;;5.25;2.35;;;;;;;11.72;67.76;102450.84;6047840;19;20018;-78
2023/06/04 02:24:53;;;;;;;6.00;3.20;;;;;;;11.68;67.70;102452.66;6103403;19;20010;-78
2023/06/04 02:26:58;;;;;;;7.15;2.58;;;;;;;11.68;67.87;102452.66;6103989;19;20025;-78
2023/06/04 02:29:04;;;;;;;4.88;2.30;;;;;;;11.69;67.85;102458.78;6082721;19;20039;-78
2023/06/04 02:31:10;;;;;;;4.55;2.30;;;;;;;11.69;67.49;102459.69;6094010;19;20031;-76
2023/06/04 02:33:17;;;;;;;4.57;2.50;;;;;;;11.70;67.29;102455.28;6102213;19;20056;-77
2023/06/04 02:35:24;;;;;;;5.10;3.03;;;;;;;11.67;67.40;102455.34;6102599;19;20006;-77
2023/06/04 02:37:38;;;;;;;7.38;2.42;;;;;;;11.60;67.58;102452.81;6096263;19;20007;-79
2023/06/04 02:39:45;;;;;;;3.92;2.20;;;;;;;11.61;66.91;102467.72;6075612;19;20018;-78
2023/06/04 02:41:53;;;;;;;4.50;2.33;;;;;;;11.57;67.04;102454.63;6108334;19;20013;-79
2023/06/04 02:44:01;;;;;;;6.18;2.42;;;;;;;11.59;66.69;102458.13;6105191;19;20038;-77
2023/06/04 02:46:09;;;;;;;3.50;2.08;;;;;;;11.58;66.29;102461.63;6102296;19;20424;-78
2023/06/04 02:48:16;;;;;;;6.75;2.88;;;;;;;11.54;66.86;102458.19;6101364;19;20017;-77
2023/06/04 02:50:23;;;;;;;4.57;2.17;;;;;;;11.53;66.46;102461.72;6104131;19;20011;-77
2023/06/04 02:52:36;;;;;;;3.65;2.03;;;;;;;11.51;66.67;102462.66;6099734;19;20041;-78
2023/06/04 02:54:55;;;;;;;4.88;2.13;;;;;;;11.50;66.44;102458.25;6100177;19;20574;-77
2023/06/04 02:57:03;;;;;;;3.28;2.05;;;;;;;11.48;66.26;102462.69;6102125;19;20048;-78
2023/06/04 02:59:09;;;;;;;5.68;2.47;;;;;;;11.45;66.32;102452.22;6103774;19;20023;-78
2023/06/04 03:01:28;;;;;;;7.80;2.30;;;;;;;11.41;66.57;102454.06;6099348;19;20017;-78
2023/06/04 03:03:36;;;;;;;3.95;2.13;;;;;;;11.38;66.28;102456.75;6101146;19;20011;-77
2023/06/04 03:05:42;;;;;;;3.83;2.20;;;;;;;11.40;66.01;102455.81;6103883;19;20038;-78
2023/06/04 03:07:56;;;;;;;5.60;2.63;;;;;;;11.45;66.03;102449.59;6102909;19;20007;-78
2023/06/04 03:10:21;;;;;;;4.70;1.90;;;;;;;11.42;65.78;102464.53;6100495;19;20766;-79
2023/06/04 03:12:29;;;;;;;5.78;2.40;;;;;;;11.36;66.24;102456.75;6103141;19;20011;-78
2023/06/04 03:14:35;;;;;;;4.70;2.33;;;;;;;11.35;66.47;102457.66;6100393;19;20003;-77
2023/06/04 03:16:42;;;;;;;4.03;1.92;;;;;;;11.39;65.98;102461.09;6099026;19;20010;-79
2023/06/04 03:18:55;;;;;;;4.13;2.05;;;;;;;11.33;66.14;102453.31;6102337;19;20010;-78
2023/06/04 03:21:04;;;;;;;2.67;1.98;;;;;;;11.30;66.00;102451.63;6109767;19;20014;-78
2023/06/04 03:23:12;;;;;;;4.28;2.10;;;;;;;11.27;66.22;102456.94;6107085;19;20491;-77
2023/06/04 03:25:25;;;;;;;2.83;1.88;;;;;;;11.28;66.30;102453.41;6106833;19;20103;-79
2023/06/04 03:27:55;;;;;;;3.65;2.17;;;;;;;11.28;66.49;102456.03;6082180;19;20010;-80
2023/06/04 03:30:00;;;;;;;4.90;2.05;;;;;;;11.21;66.24;102457.03;6110019;19;20003;-81
2023/06/04 03:32:20;;;;;;;2.38;2.00;;;;;;;11.23;66.08;102459.63;6105116;19;20039;-80
2023/06/04 03:34:27;;;;;;;5.85;2.10;;;;;;;11.21;66.20;102452.63;6099334;19;20176;-80
2023/06/04 03:36:37;;;;;;;5.30;2.20;;;;;;;11.23;66.21;102464.91;6108039;19;20558;-80
2023/06/04 03:38:53;;;;;;;4.13;2.00;;;;;;;11.20;65.97;102455.28;6110235;19;20042;-79
2023/06/04 03:41:01;;;;;;;4.75;2.30;;;;;;;11.22;66.00;102448.25;6109458;19;20031;-79
2023/06/04 03:43:10;;;;;;;3.60;2.08;;;;;;;11.22;66.09;102450.88;6108953;19;20047;-80
2023/06/04 03:45:24;;;;;;;4.25;1.83;;;;;;;11.23;65.71;102452.59;6104164;19;20089;-79
2023/06/04 03:47:29;;;;;;;3.65;2.17;;;;;;;11.20;65.93;102447.41;6106547;19;20018;-79
2023/06/04 03:49:36;;;;;;;7.93;2.42;;;;;;;11.19;65.45;102459.69;6104688;19;20010;-79
2023/06/04 03:51:45;;;;;;;4.90;2.20;;;;;;;11.15;65.91;102462.41;6108766;19;20445;-80
2023/06/04 03:53:56;;;;;;;5.35;2.03;;;;;;;11.15;65.58;102458.00;6104780;19;20067;-77
2023/06/04 03:56:09;;;;;;;4.45;2.30;;;;;;;11.17;65.90;102460.63;6107580;19;20356;-79
2023/06/04 03:58:15;;;;;;;4.10;2.22;;;;;;;11.20;65.85;102453.53;6108632;19;20006;-80
2023/06/04 04:00:43;;;;;;;4.20;2.13;;;;;;;11.19;65.62;102462.31;6103553;19;20343;-80
2023/06/04 04:02:56;;;;;;;5.00;2.30;;;;;;;11.20;65.83;102460.56;6096637;19;20014;-78
2023/06/04 04:05:01;;;;;;;6.18;2.33;;;;;;;11.20;65.59;102460.56;6107570;19;20043;-79
2023/06/04 04:07:06;;;;;;;5.70;2.40;;;;;;;11.19;65.48;102453.56;6104492;19;20028;-80
2023/06/04 04:09:35;;;;;;;4.60;2.45;;;;;;;11.18;65.51;102462.34;6086341;19;20287;-80
2023/06/04 04:11:45;;;;;;;3.28;2.10;;;;;;;11.25;65.42;102460.47;6104670;19;20010;-81
2023/06/04 04:14:01;;;;;;;5.78;2.22;;;;;;;11.30;65.48;102462.13;6103741;19;20018;-79
2023/06/04 04:16:12;;;;;;;5.35;2.17;;;;;;;11.28;65.47;102461.28;6102660;19;20082;-80
2023/06/04 04:18:19;;;;;;;3.42;2.22;;;;;;;11.29;64.98;102464.78;6084360;19;20014;-78
2023/06/04 04:20:29;;;;;;;5.20;2.30;;;;;;;11.30;65.16;102464.78;6105949;19;20002;-77
2023/06/04 04:22:35;;;;;;;6.15;2.50;;;;;;;11.37;65.13;102468.16;6072104;19;20471;-77
2023/06/04 04:24:43;;;;;;;5.13;2.30;;;;;;;11.39;64.82;102467.22;6078224;19;20014;-78
2023/06/04 04:26:55;;;;;;;5.40;2.83;;;;;;;11.39;64.98;102459.31;6091760;19;20015;-80
2023/06/04 04:29:03;;;;;;;4.13;2.15;;;;;;;11.45;64.44;102460.13;6098825;19;20027;-79
2023/06/04 04:31:11;;;;;;;4.35;2.20;;;;;;;11.48;64.77;102463.59;6081914;19;20017;-77
2023/06/04 04:33:27;;;;;;;6.63;2.70;;;;;;;11.56;64.31;102456.41;6098700;19;20224;-78
2023/06/04 04:35:37;;;;;;;3.90;1.95;;;;;;;11.61;63.90;102461.56;6102015;19;20525;-80
2023/06/04 04:37:47;;;;;;;3.97;2.20;;;;;;;11.69;64.13;102458.78;6092855;19;20089;-79
2023/06/04 04:39:57;;;;;;;4.45;2.20;;;;;;;11.80;63.77;102462.09;6095748;19;20066;-79
2023/06/04 04:42:10;;;;;;;6.78;2.22;;;;;;;11.85;63.62;102461.09;6108295;19;20013;-79
2023/06/04 04:44:29;;;;;;;4.30;2.13;;;;;;;12.01;63.12;102460.84;6109187;19;20014;-79
2023/06/04 04:46:37;;;;;;;4.18;2.25;;;;;;;12.13;62.95;102459.69;6087975;19;20007;-78
2023/06/04 04:48:45;;;;;;;6.22;2.53;;;;;;;12.25;62.39;102455.03;6101495;19;20026;-79
2023/06/04 04:50:54;;;;;;;5.90;2.25;;;;;;;12.36;62.10;102451.31;6108798;19;20633;-79
2023/06/04 04:53:11;;;;;;;4.90;2.20;;;;;;;12.43;61.72;102443.22;6094085;19;20493;-79
2023/06/04 04:55:26;;;;;;;6.07;2.75;;;;;;;12.58;61.17;102449.03;6108280;19;20011;-78
2023/06/04 04:57:42;;;;;;;6.28;2.22;;;;;;;12.74;60.76;102450.41;6095932;19;20498;-78
2023/06/04 04:59:49;;;;;;;6.05;2.33;;;;;;;12.85;60.49;102445.75;6107887;19;20011;-79
2023/06/04 05:01:58;;;;;;;5.00;2.30;;;;;;;12.99;59.59;102445.41;6102016;19;20628;-80
2023/06/04 05:04:11;;;;;;;5.55;2.20;;;;;;;13.10;59.28;102453.91;6101489;19;20015;-80
2023/06/04 05:06:24;;;;;;;4.57;2.28;;;;;;;13.23;58.91;102450.97;6109243;19;20076;-79
2023/06/04 05:08:37;;;;;;;5.80;2.33;;;;;;;13.41;58.58;102455.81;6103963;19;20010;-78
2023/06/04 05:10:43;;;;;;;4.60;2.30;;;;;;;13.51;58.05;102459.94;6090894;19;20019;-79
2023/06/04 05:13:15;;;;;;;3.58;2.22;;;;;;;13.69;57.92;102460.34;6111932;19;20010;-80
2023/06/04 05:15:29;;;;;;;5.78;2.33;;;;;;;13.86;57.76;102460.75;6093510;19;20014;-78
2023/06/04 05:17:40;;;;;;;3.97;2.00;;;;;;;14.07;56.57;102456.63;6093902;19;20010;-79
2023/06/04 05:19:48;;;;;;;4.65;2.17;;;;;;;14.21;56.08;102457.06;6099033;19;20022;-79
2023/06/04 05:21:55;;;;;;;3.42;2.00;;;;;;;14.15;55.92;102459.91;6115851;19;20070;-80
2023/06/04 05:24:10;;;;;;;7.75;2.70;;;;;;;14.35;55.67;102454.03;6093377;19;20081;-80
2023/06/04 05:26:33;;;;;;;4.22;2.38;;;;;;;14.63;54.85;102455.81;6094277;19;20035;-81
2023/06/04 05:28:45;;;;;;;5.20;2.47;;;;;;;14.61;54.03;102462.94;6097072;19;20510;-79
2023/06/04 05:30:59;;;;;;;3.70;1.75;;;;;;;14.85;53.75;102456.88;6109204;19;20039;-79
2023/06/04 05:33:17;;;;;;;5.22;2.22;;;;;;;14.98;53.77;102467.03;6086186;19;20408;-81
2023/06/04 05:35:23;;;;;;;6.30;2.35;;;;;;;15.19;53.14;102458.38;6102060;19;20122;-78
2023/06/04 05:37:34;;;;;;;5.13;2.10;;;;;;;15.11;52.78;102471.03;6109011;19;20010;-78
2023/06/04 05:39:42;;;;;;;4.30;2.10;;;;;;;15.27;52.59;102452.81;6096118;19;20010;-79
2023/06/04 05:41:53;;;;;;;3.70;2.25;;;;;;;15.52;52.65;102459.00;6088474;19;20040;-78
2023/06/04 05:44:06;;;;;;;4.40;2.03;;;;;;;15.75;51.76;102460.88;6091464;19;20013;-80
2023/06/04 05:46:13;;;;;;;4.93;2.53;;;;;;;15.70;51.59;102465.47;6090172;19;20010;-79
2023/06/04 05:48:22;;;;;;;4.93;2.00;;;;;;;15.75;51.39;102471.47;6105752;19;20006;-81
2023/06/04 05:50:37;;;;;;;;;;;;;;;;;;;;;
2023/06/04 05:52:42;;;;;;;5.18;2.25;;;;;;;16.09;51.20;102456.97;6084483;19;20079;-80
2023/06/04 05:54:55;;;;;;;4.43;2.42;;;;;;;16.35;50.50;102455.09;6084264;19;20011;-80
2023/06/04 05:57:03;;;;;;;6.85;2.70;;;;;;;16.46;50.09;102463.50;6101541;19;20409;-79
2023/06/04 05:59:12;;;;;;;4.93;2.10;;;;;;;16.68;49.50;102461.72;6103194;19;20006;-80
2023/06/04 06:01:24;;;;;;;4.28;2.38;;;;;;;16.56;48.81;102462.22;6099005;19;20098;-81
2023/06/04 06:03:36;;;;;;;5.82;2.28;;;;;;;16.33;48.80;102465.78;6077727;19;20011;-79
2023/06/04 06:05:43;;;;;;;5.40;1.98;;;;;;;16.61;48.58;102470.88;6094650;19;20060;-79
2023/06/04 06:07:50;;;;;;;4.82;2.38;;;;;;;16.61;48.68;102467.34;6105148;19;20109;-82
2023/06/04 06:09:55;;;;;;;5.45;1.95;;;;;;;16.65;48.11;102469.81;6103666;19;20017;-81
2023/06/04 06:12:00;;;;;;;4.97;2.13;;;;;;;16.80;48.21;102467.50;6102416;19;20557;-80
2023/06/04 06:14:05;;;;;;;5.90;2.40;;;;;;;16.81;47.23;102474.53;6070585;19;20007;-80
2023/06/04 06:16:14;;;;;;;7.38;2.35;;;;;;;16.81;47.71;102466.56;6081023;19;20478;-80
2023/06/04 06:18:19;;;;;;;7.20;2.17;;;;;;;16.98;47.32;102474.72;6068797;19;20059;-81
2023/06/04 06:20:29;;;;;;;5.68;2.25;;;;;;;17.10;47.36;102468.88;6103497;19;20400;-80
2023/06/04 06:22:35;;;;;;;4.72;2.00;;;;;;;17.29;46.81;102468.09;6086381;19;20025;-79
2023/06/04 06:24:42;;;;;;;3.80;2.15;;;;;;;17.26;45.63;102470.91;6094474;19;20743;-78
2023/06/04 06:26:50;;;;;;;5.70;2.15;;;;;;;17.51;45.79;102479.56;6075709;19;20014;-80
2023/06/04 06:29:00;;;;;;;2.63;1.80;;;;;;;17.89;45.48;102471.69;6091391;19;20438;-79
2023/06/04 06:31:07;;;;;;;3.22;1.83;;;;;;;17.85;44.70;102470.13;6094421;19;20052;-80
2023/06/04 06:33:16;;;;;;;3.15;1.80;;;;;;;18.22;44.76;102473.75;6105494;19;20802;-80
2023/06/04 06:35:21;;;;;;;3.72;1.95;;;;;;;18.44;44.01;102476.25;6099393;19;20116;-80
2023/06/04 06:37:33;;;;;;;5.13;1.85;;;;;;;18.46;43.67;102477.03;6092036;19;20256;-79
2023/06/04 06:39:57;;;;;;;6.75;2.22;;;;;;;18.59;43.14;102482.66;6099174;19;20021;-79
2023/06/04 06:42:02;;;;;;;4.47;1.80;;;;;;;18.45;42.76;102480.63;6098619;19;20014;-80
2023/06/04 06:44:08;;;;;;;4.45;1.88;;;;;;;18.23;42.68;102480.78;6107959;19;20031;-80
2023/06/04 06:46:15;;;;;;;4.57;2.10;;;;;;;18.48;42.66;102474.28;6100349;19;20024;-80
2023/06/04 06:48:28;;;;;;;4.07;1.92;;;;;;;18.53;42.23;102481.13;6098309;19;20007;-80
2023/06/04 06:50:35;;;;;;;4.32;1.90;;;;;;;18.53;41.29;102482.94;6103430;19;20021;-79
2023/06/04 06:52:52;;;;;;;3.80;1.70;;;;;;;18.82;41.35;102477.06;6098973;19;20028;-80
2023/06/04 06:54:59;;;;;;;5.03;1.80;;;;;;;18.82;41.63;102482.41;6107571;19;20011;-78
2023/06/04 06:57:08;;;;;;;4.43;1.77;;;;;;;18.80;40.70;102480.75;6103784;19;20018;-80
2023/06/04 06:59:18;;;;;;;5.05;2.03;;;;;;;18.90;40.30;102473.19;6108635;19;20002;-81
2023/06/04 07:01:24;;;;;;;5.05;2.00;;;;;;;18.87;40.45;102474.19;6095228;19;20016;-80
2023/06/04 07:03:32;;;;;;;6.47;1.88;;;;;;;19.10;39.70;102478.38;6105862;19;20391;-81
2023/06/04 07:05:41;;;;;;;5.15;1.98;;;;;;;19.23;39.85;102474.16;6101479;19;20016;-80
2023/06/04 07:07:51;;;;;;;3.72;1.95;;;;;;;19.40;39.51;102480.41;6106142;19;20023;-80
2023/06/04 07:09:59;;;;;;;4.53;1.80;;;;;;;19.44;39.18;102488.19;6107515;19;20356;-79
2023/06/04 07:12:05;;;;;;;5.30;2.00;;;;;;;19.33;38.78;102489.69;6099633;19;20446;-79
2023/06/04 07:14:15;;;;;;;3.53;1.83;;;;;;;19.56;38.80;102486.66;6099803;19;20102;-79
2023/06/04 07:16:23;;;;;;;4.78;1.90;;;;;;;19.77;38.76;102490.03;6074788;19;20011;-80
2023/06/04 07:18:32;;;;;;;5.45;2.00;;;;;;;19.73;37.78;102478.69;6100724;19;20337;-80
2023/06/04 07:20:40;;;;;;;4.03;1.95;;;;;;;19.81;38.03;102482.75;6099109;19;20003;-80
2023/06/04 07:22:47;;;;;;;6.63;2.22;;;;;;;19.68;37.89;102486.06;6100351;19;20082;-82
2023/06/04 07:24:53;;;;;;;2.70;1.70;;;;;;;19.99;38.19;102487.09;6097317;19;20047;-80
2023/06/04 07:27:02;;;;;;;4.68;2.10;;;;;;;20.37;38.02;102484.97;6097104;19;20082;-80
2023/06/04 07:29:08;;;;;;;4.80;2.10;;;;;;;20.69;37.18;102478.81;6082665;19;20019;-79
2023/06/04 07:31:17;;;;;;;3.75;1.73;;;;;;;20.79;36.47;102488.03;6093079;19;20014;-79
2023/06/04 07:33:24;;;;;;;3.67;1.77;;;;;;;20.47;36.69;102487.16;6074519;19;20019;-78
2023/06/04 07:35:35;;;;;;;5.03;2.20;;;;;;;20.46;36.50;102485.41;6098142;19;20537;-79
2023/06/04 07:37:41;;;;;;;3.67;2.05;;;;;;;20.07;36.75;102482.22;6097418;19;20027;-80
2023/06/04 07:39:55;;;;;;;5.30;1.90;;;;;;;20.32;37.08;102487.03;6097019;19;20077;-79
2023/06/04 07:42:03;;;;;;;5.78;2.63;;;;;;;20.47;36.96;102480.00;6098382;19;20039;-79
2023/06/04 07:44:08;;;;;;;3.25;1.83;;;;;;;20.34;35.91;102481.63;6099281;19;20341;-79
2023/06/04 07:46:13;;;;;;;7.28;2.17;;;;;;;20.38;35.97;102475.19;6099619;19;20046;-80
2023/06/04 07:48:21;;;;;;;6.32;2.03;;;;;;;20.74;36.15;102472.25;6080629;19;20003;-80
2023/06/04 07:50:29;;;;;;;6.13;2.10;;;;;;;20.73;35.81;102475.88;6096281;19;20010;-78
2023/06/04 07:52:40;;;;;;;2.40;1.80;;;;;;;20.76;35.39;102485.53;6084356;19;20032;-79
2023/06/04 07:54:46;;;;;;;4.85;2.00;;;;;;;20.86;35.91;102480.53;6090339;19;20038;-80
2023/06/04 07:56:55;;;;;;;4.93;2.10;;;;;;;21.03;35.43;102485.72;6091127;19;20027;-79
2023/06/04 07:59:01;;;;;;;7.50;2.20;;;;;;;20.99;36.17;102482.38;6091986;19;20007;-79
2023/06/04 08:01:06;;;;;;;4.85;2.20;;;;;;;20.97;35.71;102486.97;6093639;19;20039;-76
2023/06/04 08:03:11;;;;;;;5.90;2.13;;;;;;;21.16;36.29;102475.19;6096279;19;20443;-76
2023/06/04 08:05:18;;;;;;;5.18;2.00;;;;;;;21.98;35.78;102471.13;6096316;19;20376;-77
2023/06/04 08:07:26;;;;;;;3.85;2.03;;;;;;;21.84;35.44;102480.00;6089139;19;20384;-77
2023/06/04 08:09:35;;;;;;;3.33;1.85;;;;;;;22.22;35.51;102484.78;6086474;19;20014;-76
2023/06/04 08:11:41;;;;;;;6.93;3.03;;;;;;;22.25;35.37;102474.75;6097749;19;20082;-78
2023/06/04 08:13:50;;;;;;;6.43;2.53;;;;;;;22.28;35.00;102487.09;6100912;19;20074;-76
2023/06/04 08:15:57;;;;;;;6.85;2.72;;;;;;;22.08;35.73;102481.13;6084160;19;20034;-77
2023/06/04 08:18:04;;;;;;;5.38;2.63;;;;;;;22.29;36.86;102473.59;6109578;19;20078;-78
2023/06/04 08:20:12;;;;;;;6.68;2.72;;;;;;;22.42;37.38;102481.69;6111819;19;20074;-77
2023/06/04 08:22:22;;;;;;;10.93;2.47;;;;;;;22.32;37.96;102480.56;6113179;19;20011;-77
2023/06/04 08:24:27;;;;;;;7.85;2.70;;;;;;;22.32;37.23;102484.09;6109210;19;20031;-77
2023/06/04 08:26:35;;;;;;;5.18;2.15;;;;;;;22.17;37.14;102485.06;6093691;19;20036;-75
2023/06/04 08:28:42;;;;;;;9.57;3.00;;;;;;;22.20;37.64;102482.22;6105860;19;20002;-78
2023/06/04 08:30:48;;;;;;;7.90;2.80;;;;;;;22.16;36.83;102490.50;6109092;19;20011;-78
2023/06/04 08:32:53;;;;;;;8.45;2.63;;;;;;;22.20;37.54;102489.41;6104560;19;20025;-76
2023/06/04 08:34:58;;;;;;;5.43;2.47;;;;;;;22.42;37.09;102481.69;6074291;19;20124;-77
2023/06/04 08:37:04;;;;;;;10.27;3.72;;;;;;;22.63;36.99;102490.16;6099699;19;20015;-77
2023/06/04 08:39:11;;;;;;;6.43;2.47;;;;;;;22.46;37.43;102485.03;6090960;19;20006;-77
2023/06/04 08:41:22;;;;;;;7.38;2.60;;;;;;;23.03;36.40;102486.69;6091399;19;20650;-78
2023/06/04 08:43:32;;;;;;;6.75;2.30;;;;;;;22.74;36.94;102493.00;6076235;19;20449;-78
2023/06/04 08:45:42;;;;;;;6.35;2.58;;;;;;;22.80;36.53;102483.69;6090866;19;20078;-78
2023/06/04 08:47:51;;;;;;;11.23;3.22;;;;;;;22.60;35.74;102495.72;6089944;19;20372;-78
2023/06/04 08:50:01;;;;;;;8.15;2.38;;;;;;;22.85;36.36;102494.09;6090052;19;20018;-77
2023/06/04 08:52:08;;;;;;;5.55;2.50;;;;;;;23.25;35.91;102496.81;6100853;19;20015;-76
2023/06/04 08:54:14;;;;;;;5.03;2.38;;;;;;;22.74;36.60;102487.63;6080397;19;20097;-76
2023/06/04 08:56:19;;;;;;;6.28;2.47;;;;;;;22.84;36.49;102493.25;6090656;19;20010;-75
2023/06/04 08:58:25;;;;;;;8.98;2.65;;;;;;;23.08;36.44;102489.94;6089964;19;20011;-78
2023/06/04 09:00:33;;;;;;;9.50;2.75;;;;;;;23.20;36.63;102494.47;6101184;19;20027;-76
2023/06/04 09:02:39;;;;;;;6.90;2.60;;;;;;;23.52;36.61;102502.13;6087185;19;20003;-77
2023/06/04 09:04:45;;;;;;;8.25;2.50;;;;;;;23.57;35.71;102505.38;6099734;19;20015;-77
2023/06/04 09:06:54;;;;;;;6.10;2.70;;;;;;;23.56;35.67;102507.16;6096224;19;20032;-76
2023/06/04 09:09:00;;;;;;;7.10;2.70;;;;;;;23.59;35.77;102500.72;6092657;19;20348;-78
2023/06/04 09:11:08;;;;;;;6.28;2.50;;;;;;;23.57;35.70;102508.03;6084571;19;20011;-77
2023/06/04 09:13:13;;;;;;;8.68;2.78;;;;;;;24.08;35.81;102502.69;6090175;19;20041;-75
2023/06/04 09:15:19;;;;;;;6.28;2.45;;;;;;;24.28;35.09;102503.94;6085506;19;20430;-74
2023/06/04 09:17:27;;;;;;;6.85;2.90;;;;;;;24.15;34.43;102495.06;6097612;19;20010;-75
2023/06/04 09:19:32;;;;;;;5.22;2.33;;;;;;;24.13;34.31;102497.84;6101329;19;20015;-75
2023/06/04 09:21:48;;;;;;;9.63;3.45;;;;;;;23.88;35.11;102502.28;6088719;19;20013;-76
2023/06/04 09:23:55;;;;;;;6.32;2.33;;;;;;;24.00;35.53;102495.16;6074677;19;20413;-76
2023/06/04 09:26:12;;;;;;;5.90;2.75;;;;;;;24.13;35.17;102499.66;6100437;19;20376;-75
2023/06/04 09:28:16;;;;;;;8.43;2.85;;;;;;;23.80;35.22;102503.75;6099678;19;20011;-76
2023/06/04 09:30:25;;;;;;;7.03;2.67;;;;;;;24.08;35.39;102498.16;6088147;19;20003;-76
2023/06/04 09:32:34;;;;;;;6.03;2.45;;;;;;;24.13;36.08;102497.84;6098237;19;20516;-76
2023/06/04 09:34:44;;;;;;;5.13;2.40;;;;;;;24.10;34.22;102506.13;6099143;19;20038;-76
2023/06/04 09:36:50;;;;;;;5.82;2.47;;;;;;;23.81;34.39;102505.50;6093224;19;22474;-77
2023/06/04 09:38:55;;;;;;;7.85;2.35;;;;;;;24.29;34.14;102511.03;6088331;19;20027;-77
2023/06/04 09:41:00;;;;;;;8.65;2.70;;;;;;;24.09;34.15;102505.28;6085146;19;20006;-77
2023/06/04 09:43:06;;;;;;;5.63;2.60;;;;;;;24.02;32.96;102513.88;6096423;19;20007;-76
2023/06/04 09:45:12;;;;;;;8.20;2.33;;;;;;;24.30;33.32;102505.56;6090164;19;20010;-77
2023/06/04 09:47:17;;;;;;;7.00;2.38;;;;;;;24.18;33.29;102509.13;6083503;19;20007;-76
2023/06/04 09:49:25;;;;;;;3.63;2.05;;;;;;;24.27;33.31;102497.69;6094544;19;20037;-77
2023/06/04 09:51:31;;;;;;;6.13;3.00;;;;;;;24.57;32.73;102499.16;6096702;19;20376;-76
2023/06/04 09:53:36;;;;;;;9.35;2.25;;;;;;;24.82;32.77;102497.31;6067723;19;20010;-75
2023/06/04 09:55:43;;;;;;;6.38;2.40;;;;;;;24.82;32.36;102498.19;6078758;19;20003;-76
2023/06/04 09:57:49;;;;;;;4.78;2.78;;;;;;;25.00;32.33;102503.16;6082307;19;22485;-77
2023/06/04 09:59:57;;;;;;;6.00;2.20;;;;;;;24.95;32.09;102498.97;6089635;19;20123;-75
2023/06/04 10:02:03;;;;;;;7.80;2.60;;;;;;;24.67;32.06;102507.38;6082884;19;20010;-75
2023/06/04 10:04:11;;;;;;;11.70;2.78;;;;;;;24.85;32.05;102505.16;6094708;19;20125;-76